Terminal Aerodrome Forecast
Issued by NWS Jackson, MS

Home | Current Version | Previous Version | Text Only | Print | Product List | Glossary On
Versions: 1 2 3 4 5 6 7 8 9 10 11 12 13 14 15
771
FTUS44 KJAN 261725
TAFGLH
TAF
KGLH 261725Z 2618/2718 22011KT P6SM SKC
     FM270700 18010G19KT P6SM BKN035
     FM271100 18011G20KT P6SM BKN025
     FM271300 18013G23KT P6SM BKN015=

USA.gov is the U.S. government's official web portal to all federal, state and local government web resources and services.